Latest Weather Observations for Mount Bundey North (Defence)

IDD60801

Issued at 4:41 pm CST Friday 3 December 2021 (issued every 10 minutes, with the page automatically refreshed every 10 minutes)

About weather observations | Map of weather stations | Latest weather observations for NT | Other Formats
Station Details ID: 014983 Name: MOUNT BUNDEY NORTH (DEFENCE) Lat: -12.91 Lon: 131.87 Height: 83.0 m
Data from the previous 72 hours. | See also: Recent months at Mount Bundey North (Defence)
Date/Time
CST
Temp
°C
App
Temp
°C
Dew
Point
°C
Rel
Hum
%
Delta-T
°C
Wind Press
QNH
hPa
Press
MSL
hPa
Rain since
9am
mm
Dir  Spd
km/h
Gust
km/h
Spd
kts
Gust
kts
03/04:30pm 37.7 39.7 19.1 33 12.4 E 7 13 4 7 - - 0.0
03/04:00pm 38.3 40.2 19.7 34 12.5 ESE 9 20 5 11 - - 0.0
03/03:30pm 37.9 40.2 19.8 34 12.2 ENE 7 15 4 8 - - 0.0
03/03:00pm 37.4 40.1 20.2 36 11.6 NE 6 13 3 7 - - 0.0
03/02:30pm 37.6 39.8 20.4 36 11.6 E 9 20 5 11 - - 0.0
03/02:00pm 37.7 39.9 19.6 34 12.1 E 7 13 4 7 - - 0.0
03/01:30pm 37.1 39.7 20.0 37 11.5 NE 6 15 3 8 - - 0.0
03/01:00pm 37.5 39.8 19.9 35 11.8 E 7 13 4 7 - - 0.0
03/12:30pm 36.0 40.2 22.5 45 9.3 N 4 6 2 3 - - 0.0
03/12:00pm 34.8 38.9 22.2 48 8.7 SSW 4 7 2 4 - - 0.0
03/11:30am 34.4 38.8 22.8 51 8.0 WNW 4 6 2 3 - - 0.0
03/11:00am 34.0 38.2 22.4 50 8.0 NNW 4 7 2 4 - - 0.0
03/10:30am 34.0 38.7 23.4 54 7.4 NNE 4 6 2 3 - - 0.0
03/10:00am 34.1 39.3 23.5 54 7.4 S 2 4 1 2 - - 0.0
03/09:30am 33.2 38.0 24.1 59 6.4 NW 6 9 3 5 - - 0.0
03/09:00am 32.4 37.2 24.2 62 5.7 NNW 6 7 3 4 - - 0.0
03/08:30am 31.2 37.3 25.1 70 4.3 N 2 4 1 2 - - 0.0
03/08:00am 30.3 36.7 24.9 73 3.8 CALM 0 2 0 1 - - 0.0
03/07:30am 28.7 34.2 24.0 76 3.3 ESE 2 4 1 2 - - 0.0
03/07:00am 27.8 33.6 24.0 80 2.6 CALM 0 0 0 0 - - 0.0
03/06:30am 27.3 33.1 24.0 82 2.3 CALM 0 0 0 0 - - 0.0
03/06:00am 27.1 32.8 23.8 82 2.3 CALM 0 0 0 0 - - 0.0
03/05:30am 27.1 32.8 23.8 82 2.3 CALM 0 0 0 0 - - 0.0
03/05:00am 27.0 32.7 23.7 82 2.3 CALM 0 0 0 0 - - 0.0
03/04:30am 27.3 33.0 23.7 81 2.5 CALM 0 0 0 0 - - 0.0
03/04:00am 27.0 32.6 23.5 81 2.4 CALM 0 0 0 0 - - 0.0
03/03:30am 27.3 32.7 23.3 79 2.7 CALM 0 0 0 0 - - 0.0
03/03:00am 27.7 33.1 23.3 77 3.0 CALM 0 0 0 0 - - 0.0
03/02:30am 27.7 33.0 23.1 76 3.1 CALM 0 0 0 0 - - 0.0
03/02:00am 27.9 32.8 23.1 75 3.3 N 2 4 1 2 - - 0.0
03/01:30am 28.2 32.9 22.7 72 3.7 NNW 2 6 1 3 - - 0.0
03/01:00am 28.4 33.1 22.6 71 3.9 NNW 2 4 1 2 - - 0.0
03/12:30am 28.6 32.7 22.3 68 4.3 NNE 4 6 2 3 - - 0.0
03/12:00am 28.8 32.8 22.1 67 4.5 NNE 4 6 2 3 - - 0.0
 
Date/Time
CST
Temp
°C
App
Temp
°C
Dew
Point
°C
Rel
Hum
%
Delta-T
°C
Wind Press
QNH
hPa
Press
MSL
hPa
Rain since
9am
mm
Dir  Spd
km/h
Gust
km/h
Spd
kts
Gust
kts
02/11:30pm 29.2 33.1 21.9 64 4.9 NW 4 6 2 3 - - 0.0
02/11:00pm 29.5 33.7 21.7 63 5.3 N 2 4 1 2 - - 0.0
02/10:30pm 29.6 33.8 21.8 63 5.3 N 2 6 1 3 - - 0.0
02/10:00pm 29.8 33.8 22.0 63 5.3 N 4 7 2 4 - - 0.0
02/09:30pm 30.3 34.2 22.5 63 5.3 NNW 6 13 3 7 - - 0.0
02/09:00pm 30.7 34.7 23.1 64 5.2 NNW 7 13 4 7 - - 0.0
02/08:30pm 31.6 35.7 23.2 61 5.8 NW 7 13 4 7 - - 0.0
02/08:00pm 33.5 36.8 19.9 44 9.0 N 2 4 1 2 - - 0.0
02/07:30pm 34.1 37.2 19.4 42 9.7 N 2 4 1 2 - - 0.0
02/07:00pm 34.9 37.9 19.3 40 10.3 N 2 4 1 2 - - 0.0
02/06:30pm 35.6 38.5 19.1 38 10.9 NNE 2 6 1 3 - - 0.0
02/06:00pm 36.2 38.0 18.3 34 11.7 NE 6 9 3 5 - - 0.0
02/05:30pm 36.6 38.2 18.2 34 12.1 ENE 7 17 4 9 - - 0.0
02/05:00pm 37.4 38.8 17.9 31 12.8 SE 7 15 4 8 - - 0.0
02/04:30pm 38.2 39.7 18.1 30 13.2 SE 7 17 4 9 - - 0.0
02/04:00pm 38.5 39.4 16.7 27 14.1 ESE 7 15 4 8 - - 0.0
02/03:30pm 37.8 39.3 17.7 30 13.1 E 6 11 3 6 - - 0.0
02/03:00pm 38.2 39.0 18.1 30 13.2 SSE 11 19 6 10 - - 0.0
02/02:30pm 38.3 39.5 18.2 31 13.2 SSE 9 20 5 11 - - 0.0
02/02:00pm 38.0 40.0 17.9 30 13.2 ENE 4 13 2 7 - - 0.0
02/01:30pm 37.5 40.8 20.8 38 11.4 N 4 9 2 5 - - 0.0
02/01:00pm 36.6 39.4 20.4 38 10.9 S 6 9 3 5 - - 0.0
02/12:30pm 36.2 39.2 21.2 41 10.2 S 7 15 4 8 - - 0.0
02/12:00pm 36.1 39.2 21.1 41 10.2 S 6 11 3 6 - - 0.0
02/11:30am 35.4 38.1 21.3 44 9.6 S 9 15 5 8 - - 0.0
02/11:00am 33.9 37.7 22.7 52 7.7 WSW 7 15 4 8 - - 0.0
02/10:30am 33.2 36.9 23.2 55 6.9 W 9 15 5 8 - - 0.0
02/10:00am 32.6 36.2 23.8 59 6.1 WSW 11 19 6 10 - - 0.0
02/09:30am 31.8 35.7 24.9 67 4.9 WSW 13 20 7 11 - - 0.0
02/09:00am 31.2 35.8 24.8 69 4.5 WSW 9 19 5 10 - - 0.0
02/08:30am 30.3 35.1 24.4 70 4.1 WSW 7 17 4 9 - - 0.0
02/08:00am 29.4 34.3 24.3 74 3.6 W 6 9 3 5 - - 0.0
02/07:30am 28.1 33.4 23.7 77 3.0 W 2 6 1 3 - - 0.0
02/07:00am 26.9 32.0 22.7 78 2.9 CALM 0 0 0 0 - - 0.0
02/06:30am 26.6 31.2 22.4 78 2.8 SSW 2 4 1 2 - - 0.0
02/06:00am 26.6 30.7 22.2 77 3.0 SSE 4 6 2 3 - - 0.0
02/05:30am 26.9 31.1 22.5 77 3.0 SSE 4 6 2 3 - - 0.0
02/05:00am 26.5 31.6 22.6 79 2.6 CALM 0 2 0 1 - - 0.0
02/04:30am 26.7 31.3 22.5 78 2.8 SSE 2 4 1 2 - - 0.0
02/04:00am 26.5 31.3 22.1 77 3.0 CALM 0 0 0 0 - - 0.0
02/03:30am 26.5 31.3 22.1 77 3.0 CALM 0 0 0 0 - - 0.0
02/03:00am 26.8 31.3 22.2 76 3.1 SE 2 4 1 2 - - 0.0
02/02:30am 26.4 30.9 22.3 78 2.8 E 2 4 1 2 - - 0.0
02/02:00am 26.3 31.0 21.9 77 2.9 CALM 0 0 0 0 - - 0.0
02/01:30am 26.4 31.1 22.0 77 3.0 CALM 0 0 0 0 - - 0.0
02/01:00am 26.6 31.3 22.0 76 3.1 CALM 0 0 0 0 - - 0.0
02/12:30am 26.9 31.6 21.9 74 3.4 CALM 0 0 0 0 - - 0.0
02/12:00am 27.1 31.5 22.1 74 3.4 NNW 2 6 1 3 - - 0.0
 
Date/Time
CST
Temp
°C
App
Temp
°C
Dew
Point
°C
Rel
Hum
%
Delta-T
°C
Wind Press
QNH
hPa
Press
MSL
hPa
Rain since
9am
mm
Dir  Spd
km/h
Gust
km/h
Spd
kts
Gust
kts
01/11:30pm 27.3 32.0 22.0 73 3.6 CALM 0 0 0 0 - - 0.0
01/11:00pm 27.5 31.7 21.8 71 3.8 NNW 2 6 1 3 - - 0.0
01/10:30pm 27.8 31.9 21.6 69 4.2 NNW 2 6 1 3 - - 0.0
01/10:00pm 28.2 32.4 21.7 68 4.4 NW 2 4 1 2 - - 0.0
01/09:30pm 28.5 32.2 21.5 66 4.7 NW 4 6 2 3 - - 0.0
01/09:00pm 28.8 32.6 21.6 65 4.8 NW 4 6 2 3 - - 0.0
01/08:30pm 29.1 32.3 21.3 62 5.2 NNW 6 11 3 6 - - 0.0
01/08:00pm 29.7 32.4 21.4 61 5.6 WNW 9 15 5 8 - - 0.0
01/07:30pm 30.2 33.4 21.6 60 5.8 WNW 7 11 4 6 - - 0.0
01/07:00pm 31.0 33.0 21.5 57 6.4 WNW 13 28 7 15 - - 0.0
01/06:30pm 31.8 35.6 22.8 59 6.2 NW 7 13 4 7 - - 0.0
01/06:00pm 32.6 36.2 22.4 55 7.0 NW 7 15 4 8 - - 0.0
01/05:30pm 34.9 37.5 21.2 44 9.3 NNW 9 20 5 11 - - 0.0
01/05:00pm 36.1 38.3 19.5 37 11.1 NNW 7 13 4 7 - - 0.0
01/04:30pm 36.2 38.4 19.6 37 11.1 N 7 13 4 7 - - 0.0
01/04:00pm 35.3 37.3 19.2 38 10.7 N 7 11 4 6 - - 0.0
01/03:30pm 33.9 36.6 21.3 47 8.5 N 9 13 5 7 - - 0.0
01/03:00pm 34.6 38.0 22.0 48 8.6 N 7 13 4 7 - - 0.0
01/02:30pm 35.0 38.4 21.6 45 9.1 NNW 6 13 3 7 - - 0.0
01/02:00pm 35.6 39.3 22.2 46 9.2 WSW 6 9 3 5 - - 0.0
01/01:30pm 35.8 39.4 22.0 44 9.5 W 6 13 3 7 - - 0.0
01/01:00pm 35.0 38.2 21.6 45 9.1 WSW 7 15 4 8 - - 0.0
01/12:30pm 35.1 38.5 21.7 45 9.2 W 6 11 3 6 - - 0.0
01/12:00pm 34.3 38.1 22.7 50 8.0 W 7 15 4 8 - - 0.0
01/11:30am 33.8 38.0 23.5 55 7.2 WSW 7 13 4 7 - - 0.0
01/11:00am 33.0 37.1 23.0 55 6.9 W 6 7 3 4 - - 0.0
01/10:30am 32.9 37.3 23.5 57 6.5 NNW 6 11 3 6 - - 0.0
01/10:00am 32.9 37.5 24.1 60 6.2 W 7 13 4 7 - - 0.0
01/09:30am 31.9 36.0 24.0 63 5.5 W 9 17 5 9 - - 0.0
01/09:00am 31.4 36.4 24.8 68 4.7 W 7 13 4 7 - - 0.0
01/08:30am 30.4 36.2 25.2 74 3.7 WSW 4 6 2 3 - - 0.0
01/08:00am 28.9 34.9 24.2 76 3.3 CALM 0 0 0 0 - - 0.0
01/07:30am 27.9 33.5 23.5 77 3.0 CALM 0 2 0 1 - - 0.0
01/07:00am 26.9 32.4 23.4 81 2.4 CALM 0 0 0 0 - - 0.0
01/06:30am 26.3 31.8 23.4 84 2.0 CALM 0 0 0 0 - - 0.0
01/06:00am 26.2 31.6 23.3 84 2.0 CALM 0 0 0 0 - - 0.0
01/05:30am 26.1 31.5 23.2 84 2.0 CALM 0 0 0 0 - - 0.0
01/05:00am 26.5 32.0 23.4 83 2.1 CALM 0 0 0 0 - - 0.0
01/04:30am 26.2 31.6 23.3 84 2.0 CALM 0 0 0 0 - - 0.0
01/04:00am 26.4 31.6 23.5 84 2.0 NE 2 6 1 3 - - 0.0
01/03:30am 26.4 32.5 24.4 89 1.4 CALM 0 2 0 1 - - 0.0
01/03:00am 26.5 31.9 24.5 89 1.4 NNE 4 6 2 3 - - 0.0
01/02:30am 26.8 32.9 24.5 87 1.6 CALM 0 0 0 0 - - 0.0
01/02:00am 26.6 31.9 24.3 87 1.6 NE 4 6 2 3 - - 0.0
01/01:30am 27.1 32.8 24.4 85 1.9 NW 2 4 1 2 - - 0.0
01/01:00am 27.4 33.0 24.3 83 2.2 NW 2 6 1 3 - - 0.0
01/12:30am 27.7 33.0 24.3 82 2.4 NNW 4 7 2 4 - - 0.0
01/12:00am 28.0 33.2 24.2 80 2.6 NNW 4 9 2 5 - - 0.0
 
Date/Time
CST
Temp
°C
App
Temp
°C
Dew
Point
°C
Rel
Hum
%
Delta-T
°C
Wind Press
QNH
hPa
Press
MSL
hPa
Rain since
9am
mm
Dir  Spd
km/h
Gust
km/h
Spd
kts
Gust
kts
30/11:30pm 28.4 33.6 24.2 78 2.9 NNW 4 9 2 5 - - 0.0
30/11:00pm 28.6 33.5 23.7 75 3.4 NNW 4 7 2 4 - - 0.0
30/10:30pm 28.9 33.6 23.3 72 3.9 NNW 4 7 2 4 - - 0.0
30/10:00pm 29.2 33.5 22.7 68 4.4 NNW 4 7 2 4 - - 0.0
30/09:30pm 29.6 33.6 22.8 67 4.7 NNW 6 13 3 7 - - 0.0
30/09:00pm 30.0 33.9 22.9 65 4.9 NW 7 15 4 8 - - 0.0
30/08:30pm 30.1 34.0 23.0 65 4.9 NW 7 13 4 7 - - 0.0
30/08:00pm 30.4 34.6 23.1 65 5.0 NW 6 11 3 6 - - 0.0
30/07:30pm 30.9 35.0 23.3 64 5.3 NNW 7 13 4 7 - - 0.0
30/07:00pm 32.2 35.9 22.6 57 6.6 NNW 7 19 4 10 - - 0.0
30/06:30pm 34.5 37.7 18.9 39 10.3 CALM 0 0 0 0 - - 0.0
30/06:00pm 35.6 38.1 18.2 35 11.4 E 2 4 1 2 - - 0.0
30/05:30pm 36.2 37.4 17.4 33 12.2 E 7 17 4 9 - - 0.0
30/05:00pm 37.4 37.9 17.4 30 13.0 SE 11 20 6 11 - - 0.0

Other formats

Comma delimited format used in spreadsheet applications
http://www.bom.gov.au/fwo/IDD60801/IDD60801.94162.axf

JavaScript Object Notation format (JSON) in row-major order
http://www.bom.gov.au/fwo/IDD60801/IDD60801.94162.json

Data quality

Most of these data are generated automatically and are frequently updated. Quality checks on data are not normally performed. It is possible for incorrect values to appear. Refer to information at About Latest Weather Observations and please check the disclaimer before using these data.